createdAt,value
2022-09-03T00:01:01.942Z,17.60
2022-09-03T00:03:44.763Z,17.70
2022-09-03T00:06:17.723Z,17.80
2022-09-03T00:09:01.838Z,17.90
2022-09-03T00:11:41.149Z,17.90
2022-09-03T00:14:34.368Z,18.00
2022-09-03T00:17:08.833Z,18.00
2022-09-03T00:19:44.796Z,18.00
2022-09-03T00:22:22.097Z,17.90
2022-09-03T00:24:50.409Z,17.90
2022-09-03T00:27:28.264Z,17.80
2022-09-03T00:30:01.521Z,17.80
2022-09-03T00:32:39.386Z,17.80
2022-09-03T00:35:14.082Z,17.70
2022-09-03T00:37:42.089Z,17.70
2022-09-03T00:40:26.140Z,17.80
2022-09-03T00:43:05.277Z,17.80
2022-09-03T00:45:59.149Z,17.80
2022-09-03T00:48:33.643Z,17.80
2022-09-03T00:51:18.981Z,17.70
2022-09-03T00:54:01.012Z,17.70
2022-09-03T00:56:49.932Z,17.60
2022-09-03T00:59:31.151Z,17.60
2022-09-03T01:02:31.308Z,17.60
2022-09-03T01:05:11.863Z,17.60
2022-09-03T01:08:06.792Z,17.60
2022-09-03T01:10:46.219Z,17.50
2022-09-03T01:13:30.612Z,17.50
2022-09-03T01:16:16.011Z,17.60
2022-09-03T01:18:58.073Z,17.60
2022-09-03T01:21:30.596Z,17.60
2022-09-03T01:24:09.242Z,17.60
2022-09-03T01:27:15.634Z,17.50
2022-09-03T01:30:17.166Z,17.40
2022-09-03T01:32:56.660Z,17.40
2022-09-03T01:36:05.535Z,17.40
2022-09-03T01:38:43.559Z,17.50
2022-09-03T01:41:41.145Z,17.50
2022-09-03T01:44:15.008Z,17.50
2022-09-03T01:46:46.003Z,17.40
2022-09-03T01:49:32.623Z,17.30
2022-09-03T01:52:11.517Z,17.30
2022-09-03T01:55:07.007Z,17.40
2022-09-03T01:57:52.829Z,17.40
2022-09-03T02:00:20.981Z,17.40
2022-09-03T02:02:52.652Z,17.40
2022-09-03T02:05:24.868Z,17.40
2022-09-03T02:07:58.241Z,17.30
2022-09-03T02:10:36.031Z,17.30
2022-09-03T02:13:15.851Z,17.30
2022-09-03T02:15:46.359Z,17.30
2022-09-03T02:18:24.239Z,17.20
2022-09-03T02:20:54.238Z,17.30
2022-09-03T02:23:27.697Z,17.20
2022-09-03T02:26:01.976Z,17.20
2022-09-03T02:28:31.574Z,17.30
2022-09-03T02:30:58.878Z,17.30
2022-09-03T02:33:26.786Z,17.30
2022-09-03T02:35:55.381Z,17.30
2022-09-03T02:38:26.670Z,17.30
2022-09-03T02:40:54.609Z,17.30
2022-09-03T02:43:31.256Z,17.30
2022-09-03T02:46:03.017Z,17.30
2022-09-03T02:48:30.123Z,17.30
2022-09-03T02:50:57.355Z,17.40
2022-09-03T02:53:24.348Z,17.40
2022-09-03T02:55:51.699Z,17.40
2022-09-03T02:58:18.703Z,17.50
2022-09-03T03:00:45.837Z,17.40
2022-09-03T03:03:12.895Z,17.40
2022-09-03T03:05:46.180Z,17.50
2022-09-03T03:08:15.415Z,17.40
2022-09-03T03:10:46.282Z,17.40
2022-09-03T03:13:13.775Z,17.40
2022-09-03T03:15:41.351Z,17.30
2022-09-03T03:18:12.001Z,17.40
2022-09-03T03:20:39.988Z,17.30
2022-09-03T03:23:08.050Z,17.30
2022-09-03T03:25:37.482Z,17.20
2022-09-03T03:28:05.711Z,17.10
2022-09-03T03:30:34.203Z,17.10
2022-09-03T03:33:01.611Z,17.10
2022-09-03T03:35:28.647Z,17.10
2022-09-03T03:37:58.621Z,17.10
2022-09-03T03:40:26.368Z,17.20
2022-09-03T03:42:53.801Z,17.20
2022-09-03T03:45:20.997Z,17.20
2022-09-03T03:47:48.033Z,17.20
2022-09-03T03:50:15.595Z,17.10
2022-09-03T03:52:43.246Z,17.10
2022-09-03T03:55:10.458Z,17.10
2022-09-03T03:57:37.500Z,17.10
2022-09-03T04:00:05.346Z,17.10
2022-09-03T04:02:38.512Z,17.20
2022-09-03T04:05:06.704Z,17.20
2022-09-03T04:07:35.213Z,17.20
2022-09-03T04:10:02.432Z,17.20
2022-09-03T04:12:29.610Z,17.10
2022-09-03T04:14:56.734Z,17.10
2022-09-03T04:17:25.340Z,17.10
2022-09-03T04:19:52.732Z,17.00
2022-09-03T04:22:20.828Z,17.00
2022-09-03T04:24:48.023Z,17.00
2022-09-03T04:27:15.236Z,17.10
2022-09-03T04:29:42.379Z,17.10
2022-09-03T04:32:27.692Z,17.20
2022-09-03T04:34:54.715Z,17.20
2022-09-03T04:37:21.882Z,17.20
2022-09-03T04:39:49.167Z,17.20
2022-09-03T04:42:16.273Z,17.20
2022-09-03T04:44:43.412Z,17.20
2022-09-03T04:47:10.555Z,17.20
2022-09-03T04:49:37.547Z,17.20
2022-09-03T04:52:04.689Z,17.20
2022-09-03T04:54:31.851Z,17.20
2022-09-03T04:56:58.934Z,17.20
2022-09-03T04:59:26.040Z,17.10
2022-09-03T05:01:53.229Z,17.10
2022-09-03T05:04:20.395Z,17.10
2022-09-03T05:06:47.463Z,17.20
2022-09-03T05:09:14.711Z,17.20
2022-09-03T05:11:41.726Z,17.20
2022-09-03T05:14:12.700Z,17.30
2022-09-03T05:16:42.799Z,17.20
2022-09-03T05:19:19.779Z,17.10
2022-09-03T05:21:46.812Z,17.10
2022-09-03T05:24:15.580Z,17.10
2022-09-03T05:26:42.684Z,17.10
2022-09-03T05:29:09.917Z,17.20
2022-09-03T05:31:41.934Z,17.10
2022-09-03T05:34:16.709Z,17.20
2022-09-03T05:36:47.093Z,17.10
2022-09-03T05:39:14.115Z,17.10
2022-09-03T05:41:41.264Z,17.10
2022-09-03T05:44:08.345Z,17.10
2022-09-03T05:46:37.931Z,17.20
2022-09-03T05:49:06.781Z,17.20
2022-09-03T05:51:35.845Z,17.20
2022-09-03T05:54:04.081Z,17.30
2022-09-03T05:56:32.749Z,17.40
2022-09-03T05:59:02.321Z,17.50
2022-09-03T06:01:31.945Z,17.40
2022-09-03T06:04:04.937Z,17.00
2022-09-03T06:06:35.696Z,16.40
2022-09-03T06:09:05.947Z,15.70
2022-09-03T06:11:34.910Z,15.40
2022-09-03T06:14:05.901Z,15.10
2022-09-03T06:16:35.408Z,15.00
2022-09-03T06:19:07.292Z,15.00
2022-09-03T06:21:35.253Z,14.90
2022-09-03T06:24:03.252Z,15.00
2022-09-03T06:26:30.353Z,15.10
2022-09-03T06:28:58.127Z,15.30
2022-09-03T06:31:25.874Z,15.60
2022-09-03T06:33:54.782Z,15.70
2022-09-03T06:36:23.951Z,15.90
2022-09-03T06:38:55.941Z,16.00
2022-09-03T06:41:26.826Z,16.20
2022-09-03T06:43:59.218Z,16.40
2022-09-03T06:46:26.505Z,16.50
2022-09-03T06:48:54.542Z,16.60
2022-09-03T06:51:24.716Z,16.60
2022-09-03T06:53:54.734Z,16.70
2022-09-03T06:56:27.170Z,16.80
2022-09-03T06:58:59.498Z,16.90
2022-09-03T07:01:32.330Z,17.00
2022-09-03T07:04:02.119Z,17.10
2022-09-03T07:06:37.292Z,17.20
2022-09-03T07:09:07.598Z,17.30
2022-09-03T07:11:36.089Z,17.40
2022-09-03T07:14:05.031Z,17.40
2022-09-03T07:16:38.617Z,17.40
2022-09-03T07:19:07.004Z,17.50
2022-09-03T07:21:44.043Z,17.50
2022-09-03T07:24:15.483Z,17.60
2022-09-03T07:26:49.671Z,17.60
2022-09-03T07:29:20.798Z,17.70
